Canarana, Brazil
Current Conditions -  °F | °C
As of 7:00 PM on Sunday 25 Jan 2015 (Local Time) from SBBW Reporting Station
Broken Clouds Broken Clouds  
Wind Chill: 73°   Ceiling: 10000
Heat Index: 73°   Visibility: 6mi
Dew Point: 70°   Wind: 7mph
Humidity: 88%   Direction: 50°NE
Pressure: 29.91"   Gusts: NA
Location:  13.55°S, 52.27°W
Report Text: SBBW 252200Z 05006KT 9999 SCT025 BKN100 23/21 Q1013
Loading
Personal Weather Stations






























Interactive Weather Map New forecast layout! Learn more

10-Day Weather Forecast

Advertisements
Track Severe Weather on mobile